sensor_id;sensor_type;location;lat;lon;timestamp;pressure;altitude;pressure_sealevel;temperature;humidity
8717;BME280;4395;48.554;8.820;2023-04-01T00:01:00;94617.78;;;7.70;100.00
8717;BME280;4395;48.554;8.820;2023-04-01T00:03:04;94617.25;;;7.73;100.00
8717;BME280;4395;48.554;8.820;2023-04-01T00:05:07;94621.53;;;7.74;100.00
8717;BME280;4395;48.554;8.820;2023-04-01T00:07:11;94623.91;;;7.71;100.00
8717;BME280;4395;48.554;8.820;2023-04-01T00:09:14;94540.41;;;7.08;100.00
8717;BME280;4395;48.554;8.820;2023-04-01T00:11:18;94617.25;;;7.73;100.00
8717;BME280;4395;48.554;8.820;2023-04-01T00:13:22;94615.63;;;7.72;100.00
8717;BME280;4395;48.554;8.820;2023-04-01T00:15:26;94618.03;;;7.74;100.00
8717;BME280;4395;48.554;8.820;2023-04-01T00:17:29;94610.81;;;7.74;100.00
8717;BME280;4395;48.554;8.820;2023-04-01T00:19:32;94617.50;;;7.72;100.00
8717;BME280;4395;48.554;8.820;2023-04-01T00:21:35;94572.81;;;7.42;100.00
8717;BME280;4395;48.554;8.820;2023-04-01T00:23:38;94563.69;;;7.23;100.00
8717;BME280;4395;48.554;8.820;2023-04-01T00:25:41;94605.72;;;7.58;100.00
8717;BME280;4395;48.554;8.820;2023-04-01T00:27:46;94612.13;;;7.57;100.00
8717;BME280;4395;48.554;8.820;2023-04-01T00:29:48;94612.66;;;7.54;100.00
8717;BME280;4395;48.554;8.820;2023-04-01T00:31:51;94607.31;;;7.54;100.00
8717;BME280;4395;48.554;8.820;2023-04-01T00:33:55;94607.28;;;7.43;100.00
8717;BME280;4395;48.554;8.820;2023-04-01T00:36:05;94611.06;;;7.53;100.00
8717;BME280;4395;48.554;8.820;2023-04-01T00:38:09;94593.13;;;7.53;100.00
8717;BME280;4395;48.554;8.820;2023-04-01T00:40:23;94593.13;;;7.53;100.00
8717;BME280;4395;48.554;8.820;2023-04-01T00:42:27;94607.84;;;7.51;100.00
8717;BME280;4395;48.554;8.820;2023-04-01T00:44:33;94600.06;;;7.44;100.00
8717;BME280;4395;48.554;8.820;2023-04-01T00:46:36;94612.09;;;7.47;100.00
8717;BME280;4395;48.554;8.820;2023-04-01T00:48:41;94600.88;;;7.39;100.00
8717;BME280;4395;48.554;8.820;2023-04-01T00:50:48;94592.31;;;7.37;100.00
8717;BME280;4395;48.554;8.820;2023-04-01T00:52:52;94506.94;;;6.85;100.00
8717;BME280;4395;48.554;8.820;2023-04-01T00:54:58;94608.38;;;7.48;100.00
8717;BME280;4395;48.554;8.820;2023-04-01T00:57:05;94560.69;;;7.04;100.00
8717;BME280;4395;48.554;8.820;2023-04-01T00:59:13;94607.25;;;7.33;100.00
8717;BME280;4395;48.554;8.820;2023-04-01T01:01:19;94559.66;;;7.15;100.00
8717;BME280;4395;48.554;8.820;2023-04-01T01:03:23;94605.97;;;7.51;100.00
8717;BME280;4395;48.554;8.820;2023-04-01T01:05:36;94608.09;;;7.44;100.00
8717;BME280;4395;48.554;8.820;2023-04-01T01:07:56;94604.63;;;7.49;100.00
8717;BME280;4395;48.554;8.820;2023-04-01T01:10:10;94593.91;;;7.38;100.00
8717;BME280;4395;48.554;8.820;2023-04-01T01:12:16;94592.50;;;7.16;100.00
8717;BME280;4395;48.554;8.820;2023-04-01T01:14:33;94531.22;;;6.78;100.00
8717;BME280;4395;48.554;8.820;2023-04-01T01:16:43;94585.31;;;7.21;100.00
8717;BME280;4395;48.554;8.820;2023-04-01T01:18:52;94613.16;;;7.40;100.00
8717;BME280;4395;48.554;8.820;2023-04-01T01:21:16;94618.50;;;7.40;100.00
8717;BME280;4395;48.554;8.820;2023-04-01T01:23:53;94623.28;;;7.28;100.00
8717;BME280;4395;48.554;8.820;2023-04-01T01:26:15;94616.06;;;7.24;100.00
8717;BME280;4395;48.554;8.820;2023-04-01T01:28:35;94621.41;;;7.24;100.00
8717;BME280;4395;48.554;8.820;2023-04-01T01:30:51;94602.94;;;7.22;100.00
8717;BME280;4395;48.554;8.820;2023-04-01T01:33:35;94614.66;;;7.11;100.00
8717;BME280;4395;48.554;8.820;2023-04-01T01:35:46;94621.13;;;7.25;100.00
8717;BME280;4395;48.554;8.820;2023-04-01T01:37:56;94612.59;;;7.28;100.00
8717;BME280;4395;48.554;8.820;2023-04-01T01:40:03;94617.41;;;7.26;100.00
8717;BME280;4395;48.554;8.820;2023-04-01T01:42:11;94549.03;;;6.63;100.00
8717;BME280;4395;48.554;8.820;2023-04-01T01:44:16;94541.81;;;6.58;100.00
8717;BME280;4395;48.554;8.820;2023-04-01T01:46:22;94615.66;;;6.90;100.00
8717;BME280;4395;48.554;8.820;2023-04-01T01:48:27;94609.72;;;6.77;100.00
8717;BME280;4395;48.554;8.820;2023-04-01T01:50:32;94603.31;;;6.78;100.00
8717;BME280;4395;48.554;8.820;2023-04-01T01:52:38;94593.75;;;6.88;100.00
8717;BME280;4395;48.554;8.820;2023-04-01T01:54:47;94564.72;;;6.49;100.00
8717;BME280;4395;48.554;8.820;2023-04-01T01:56:55;94592.66;;;6.84;100.00
8717;BME280;4395;48.554;8.820;2023-04-01T01:59:03;94598.84;;;6.94;100.00
8717;BME280;4395;48.554;8.820;2023-04-01T02:01:11;94601.81;;;7.03;100.00
8717;BME280;4395;48.554;8.820;2023-04-01T02:03:17;94607.66;;;6.95;100.00
8717;BME280;4395;48.554;8.820;2023-04-01T02:05:24;94606.63;;;7.01;100.00
8717;BME280;4395;48.554;8.820;2023-04-01T02:07:35;94620.50;;;7.03;100.00
8717;BME280;4395;48.554;8.820;2023-04-01T02:09:40;94624.00;;;7.03;100.00
8717;BME280;4395;48.554;8.820;2023-04-01T02:11:47;94608.75;;;6.99;100.00
8717;BME280;4395;48.554;8.820;2023-04-01T02:13:54;94601.78;;;6.98;100.00
8717;BME280;4395;48.554;8.820;2023-04-01T02:16:02;94595.09;;;6.90;100.00
8717;BME280;4395;48.554;8.820;2023-04-01T02:18:07;94610.63;;;7.03;100.00
8717;BME280;4395;48.554;8.820;2023-04-01T02:20:13;94606.34;;;7.02;100.00
8717;BME280;4395;48.554;8.820;2023-04-01T02:22:19;94623.47;;;7.06;100.00
8717;BME280;4395;48.554;8.820;2023-04-01T02:24:26;94543.41;;;6.59;100.00
8717;BME280;4395;48.554;8.820;2023-04-01T02:26:31;94619.47;;;7.09;100.00
8717;BME280;4395;48.554;8.820;2023-04-01T02:28:37;94611.44;;;7.04;100.00
8717;BME280;4395;48.554;8.820;2023-04-01T02:30:42;94619.72;;;7.02;100.00
8717;BME280;4395;48.554;8.820;2023-04-01T02:32:46;94617.56;;;6.99;100.00
8717;BME280;4395;48.554;8.820;2023-04-01T02:34:51;94601.53;;;6.99;100.00
8717;BME280;4395;48.554;8.820;2023-04-01T02:36:55;94607.41;;;6.96;100.00
8717;BME280;4395;48.554;8.820;2023-04-01T02:38:59;94613.53;;;6.97;100.00
8717;BME280;4395;48.554;8.820;2023-04-01T02:41:04;94599.31;;;6.81;100.00
8717;BME280;4395;48.554;8.820;2023-04-01T02:43:09;94618.31;;;6.90;100.00
8717;BME280;4395;48.554;8.820;2023-04-01T02:45:13;94594.81;;;6.92;100.00
8717;BME280;4395;48.554;8.820;2023-04-01T02:47:16;94587.06;;;6.85;100.00
8717;BME280;4395;48.554;8.820;2023-04-01T02:49:19;94596.41;;;6.88;100.00
8717;BME280;4395;48.554;8.820;2023-04-01T02:51:21;94590.25;;;6.82;100.00
8717;BME280;4395;48.554;8.820;2023-04-01T02:53:24;94601.22;;;6.86;100.00
8717;BME280;4395;48.554;8.820;2023-04-01T02:55:27;94558.34;;;6.55;100.00
8717;BME280;4395;48.554;8.820;2023-04-01T02:57:32;94594.25;;;6.80;100.00
8717;BME280;4395;48.554;8.820;2023-04-01T02:59:36;94593.97;;;6.81;100.00
8717;BME280;4395;48.554;8.820;2023-04-01T03:01:39;94594.25;;;6.80;100.00
8717;BME280;4395;48.554;8.820;2023-04-01T03:03:42;94582.41;;;6.60;100.00
8717;BME280;4395;48.554;8.820;2023-04-01T03:05:44;94613.19;;;6.78;100.00
8717;BME280;4395;48.554;8.820;2023-04-01T03:07:47;94584.03;;;6.66;100.00
8717;BME280;4395;48.554;8.820;2023-04-01T03:09:53;94581.88;;;6.63;100.00
8717;BME280;4395;48.554;8.820;2023-04-01T03:11:56;94603.31;;;6.78;100.00
8717;BME280;4395;48.554;8.820;2023-04-01T03:13:59;94600.59;;;6.68;100.00
8717;BME280;4395;48.554;8.820;2023-04-01T03:16:03;94601.69;;;6.72;100.00
8717;BME280;4395;48.554;8.820;2023-04-01T03:18:07;94599.25;;;6.71;100.00
8717;BME280;4395;48.554;8.820;2023-04-01T03:20:11;94602.75;;;6.71;100.00
8717;BME280;4395;48.554;8.820;2023-04-01T03:22:14;94601.09;;;6.65;100.00
8717;BME280;4395;48.554;8.820;2023-04-01T03:24:17;94598.47;;;6.70;100.00
8717;BME280;4395;48.554;8.820;2023-04-01T03:26:21;94607.00;;;6.67;100.00
8717;BME280;4395;48.554;8.820;2023-04-01T03:28:24;94603.81;;;6.70;100.00
8717;BME280;4395;48.554;8.820;2023-04-01T03:30:27;94612.31;;;6.67;100.00
8717;BME280;4395;48.554;8.820;2023-04-01T03:32:33;94614.44;;;6.60;100.00
8717;BME280;4395;48.554;8.820;2023-04-01T03:34:36;94618.69;;;6.61;100.00
8717;BME280;4395;48.554;8.820;2023-04-01T03:36:39;94620.78;;;6.54;100.00
8717;BME280;4395;48.554;8.820;2023-04-01T03:38:42;94621.31;;;6.51;100.00
8717;BME280;4395;48.554;8.820;2023-04-01T03:40:49;94614.41;;;6.55;100.00
8717;BME280;4395;48.554;8.820;2023-04-01T03:42:52;94605.81;;;6.48;100.00
8717;BME280;4395;48.554;8.820;2023-04-01T03:44:56;94615.44;;;6.49;100.00
8717;BME280;4395;48.554;8.820;2023-04-01T03:46:58;94611.69;;;6.50;100.00
8717;BME280;4395;48.554;8.820;2023-04-01T03:49:06;94538.81;;;6.02;100.00
8717;BME280;4395;48.554;8.820;2023-04-01T03:51:13;94608.56;;;6.63;100.00
8717;BME280;4395;48.554;8.820;2023-04-01T03:53:15;94601.06;;;6.60;100.00
8717;BME280;4395;48.554;8.820;2023-04-01T03:55:20;94570.81;;;6.39;100.00
8717;BME280;4395;48.554;8.820;2023-04-01T03:57:23;94593.06;;;6.60;100.00
8717;BME280;4395;48.554;8.820;2023-04-01T03:59:27;94584.50;;;6.58;100.00
8717;BME280;4395;48.554;8.820;2023-04-01T04:01:30;94598.94;;;6.57;100.00
8717;BME280;4395;48.554;8.820;2023-04-01T04:03:33;94589.31;;;6.56;100.00
8717;BME280;4395;48.554;8.820;2023-04-01T04:05:37;94563.09;;;6.43;100.00
8717;BME280;4395;48.554;8.820;2023-04-01T04:07:40;94574.34;;;6.55;100.00
8717;BME280;4395;48.554;8.820;2023-04-01T04:09:43;94567.09;;;6.45;100.00
8717;BME280;4395;48.554;8.820;2023-04-01T04:11:46;94574.56;;;6.43;100.00
8717;BME280;4395;48.554;8.820;2023-04-01T04:13:49;94583.38;;;6.44;100.00
8717;BME280;4395;48.554;8.820;2023-04-01T04:15:51;94587.88;;;6.38;100.00
8717;BME280;4395;48.554;8.820;2023-04-01T04:17:54;94587.63;;;6.40;100.00
8717;BME280;4395;48.554;8.820;2023-04-01T04:19:58;94594.00;;;6.39;100.00
8717;BME280;4395;48.554;8.820;2023-04-01T04:22:02;94583.59;;;6.37;100.00
8717;BME280;4395;48.554;8.820;2023-04-01T04:24:05;94582.28;;;6.40;100.00
8717;BME280;4395;48.554;8.820;2023-04-01T04:26:27;94566.97;;;6.25;100.00
8717;BME280;4395;48.554;8.820;2023-04-01T04:28:34;94587.09;;;6.43;100.00
8717;BME280;4395;48.554;8.820;2023-04-01T04:30:37;94445.25;;;5.67;100.00
8717;BME280;4395;48.554;8.820;2023-04-01T04:32:39;94581.25;;;6.46;100.00
8717;BME280;4395;48.554;8.820;2023-04-01T04:34:45;94546.47;;;6.31;100.00
8717;BME280;4395;48.554;8.820;2023-04-01T04:36:48;94582.91;;;6.57;100.00
8717;BME280;4395;48.554;8.820;2023-04-01T04:38:53;94585.56;;;6.52;100.00
8717;BME280;4395;48.554;8.820;2023-04-01T04:40:57;94588.25;;;6.57;100.00
8717;BME280;4395;48.554;8.820;2023-04-01T04:42:59;94587.72;;;6.60;100.00
8717;BME280;4395;48.554;8.820;2023-04-01T04:45:03;94593.63;;;6.62;100.00
8717;BME280;4395;48.554;8.820;2023-04-01T04:47:06;94592.03;;;6.66;100.00
8717;BME280;4395;48.554;8.820;2023-04-01T04:49:10;94595.00;;;6.70;100.00
8717;BME280;4395;48.554;8.820;2023-04-01T04:51:14;94560.75;;;6.57;100.00
8717;BME280;4395;48.554;8.820;2023-04-01T04:53:19;94586.47;;;6.78;100.00
8717;BME280;4395;48.554;8.820;2023-04-01T04:55:23;94558.63;;;6.59;100.00
8717;BME280;4395;48.554;8.820;2023-04-01T04:57:46;94543.66;;;6.53;100.00
8717;BME280;4395;48.554;8.820;2023-04-01T04:59:48;94595.06;;;6.85;100.00
8717;BME280;4395;48.554;8.820;2023-04-01T05:02:14;94581.66;;;6.75;100.00
8717;BME280;4395;48.554;8.820;2023-04-01T05:04:17;94514.47;;;6.36;100.00
8717;BME280;4395;48.554;8.820;2023-04-01T05:06:20;94583.84;;;6.88;100.00
8717;BME280;4395;48.554;8.820;2023-04-01T05:08:24;94601.50;;;6.94;100.00
8717;BME280;4395;48.554;8.820;2023-04-01T05:10:28;94516.41;;;6.45;100.00
8717;BME280;4395;48.554;8.820;2023-04-01T05:12:32;94539.69;;;6.60;100.00
8717;BME280;4395;48.554;8.820;2023-04-01T05:14:37;94582.78;;;6.89;100.00
8717;BME280;4395;48.554;8.820;2023-04-01T05:16:44;94578.28;;;6.95;100.00
8717;BME280;4395;48.554;8.820;2023-04-01T05:18:47;94490.78;;;6.50;100.00
8717;BME280;4395;48.554;8.820;2023-04-01T05:20:51;94581.78;;;7.00;100.00
8717;BME280;4395;48.554;8.820;2023-04-01T05:22:55;94545.34;;;6.74;100.00
8717;BME280;4395;48.554;8.820;2023-04-01T05:24:58;94577.78;;;7.03;100.00
8717;BME280;4395;48.554;8.820;2023-04-01T05:27:04;94584.19;;;7.02;100.00
8717;BME280;4395;48.554;8.820;2023-04-01T05:29:09;94572.44;;;7.03;100.00
8717;BME280;4395;48.554;8.820;2023-04-01T05:31:13;94577.00;;;7.07;100.00
8717;BME280;4395;48.554;8.820;2023-04-01T05:33:19;94577.28;;;7.16;100.00
8717;BME280;4395;48.554;8.820;2023-04-01T05:35:23;94557.47;;;7.02;100.00
8717;BME280;4395;48.554;8.820;2023-04-01T05:37:26;94573.50;;;7.07;100.00
8717;BME280;4395;48.554;8.820;2023-04-01T05:39:29;94564.97;;;7.05;100.00
8717;BME280;4395;48.554;8.820;2023-04-01T05:41:34;94562.34;;;7.20;100.00
8717;BME280;4395;48.554;8.820;2023-04-01T05:43:39;94557.63;;;7.98;100.00
8717;BME280;4395;48.554;8.820;2023-04-01T05:46:03;94559.19;;;7.64;100.00
8717;BME280;4395;48.554;8.820;2023-04-01T05:48:22;94560.53;;;7.51;100.00
8717;BME280;4395;48.554;8.820;2023-04-01T05:50:25;94523.59;;;7.18;100.00
8717;BME280;4395;48.554;8.820;2023-04-01T05:52:28;94561.28;;;7.26;100.00
8717;BME280;4395;48.554;8.820;2023-04-01T05:54:31;94551.41;;;7.32;100.00
8717;BME280;4395;48.554;8.820;2023-04-01T05:56:34;94567.16;;;7.23;100.00
8717;BME280;4395;48.554;8.820;2023-04-01T05:58:39;94539.31;;;7.04;100.00
8717;BME280;4395;48.554;8.820;2023-04-01T06:00:43;94556.19;;;7.15;100.00
8717;BME280;4395;48.554;8.820;2023-04-01T06:02:50;94518.44;;;6.91;100.00
8717;BME280;4395;48.554;8.820;2023-04-01T06:05:01;94529.91;;;6.86;100.00
8717;BME280;4395;48.554;8.820;2023-04-01T06:07:10;94551.59;;;7.05;100.00
8717;BME280;4395;48.554;8.820;2023-04-01T06:09:15;94554.22;;;6.90;100.00
8717;BME280;4395;48.554;8.820;2023-04-01T06:11:33;94551.59;;;7.05;100.00
8717;BME280;4395;48.554;8.820;2023-04-01T06:14:00;94559.88;;;7.03;100.00
8717;BME280;4395;48.554;8.820;2023-04-01T06:16:15;94554.28;;;7.05;100.00
8717;BME280;4395;48.554;8.820;2023-04-01T06:18:38;94491.69;;;6.70;100.00
8717;BME280;4395;48.554;8.820;2023-04-01T06:20:50;94564.16;;;7.09;100.00
8717;BME280;4395;48.554;8.820;2023-04-01T06:23:10;94578.84;;;7.02;100.00
8717;BME280;4395;48.554;8.820;2023-04-01T06:25:23;94544.38;;;7.00;100.00
8717;BME280;4395;48.554;8.820;2023-04-01T06:27:46;94559.88;;;7.03;100.00
8717;BME280;4395;48.554;8.820;2023-04-01T06:30:01;94551.88;;;7.08;100.00
8717;BME280;4395;48.554;8.820;2023-04-01T06:32:27;94557.50;;;7.17;100.00
8717;BME280;4395;48.554;8.820;2023-04-01T06:34:45;94546.03;;;7.22;100.00
8717;BME280;4395;48.554;8.820;2023-04-01T06:37:11;94541.22;;;7.24;100.00
8717;BME280;4395;48.554;8.820;2023-04-01T06:39:40;94537.25;;;7.36;100.00
8717;BME280;4395;48.554;8.820;2023-04-01T06:42:16;94527.63;;;7.40;100.00
8717;BME280;4395;48.554;8.820;2023-04-01T06:44:27;94540.47;;;7.38;100.00
8717;BME280;4395;48.554;8.820;2023-04-01T06:46:57;94538.59;;;7.44;100.00
8717;BME280;4395;48.554;8.820;2023-04-01T06:49:41;94541.81;;;7.46;100.00
8717;BME280;4395;48.554;8.820;2023-04-01T06:52:11;94543.16;;;7.49;100.00
8717;BME280;4395;48.554;8.820;2023-04-01T06:54:40;94534.59;;;7.41;100.00
8717;BME280;4395;48.554;8.820;2023-04-01T06:57:14;94537.53;;;7.60;100.00
8717;BME280;4395;48.554;8.820;2023-04-01T06:59:25;94542.63;;;7.67;100.00
8717;BME280;4395;48.554;8.820;2023-04-01T07:01:33;94538.88;;;7.73;100.00
8717;BME280;4395;48.554;8.820;2023-04-01T07:03:41;94545.56;;;7.70;100.00
8717;BME280;4395;48.554;8.820;2023-04-01T07:05:46;94555.19;;;7.66;100.00
8717;BME280;4395;48.554;8.820;2023-04-01T07:07:52;94546.38;;;7.66;100.00
8717;BME280;4395;48.554;8.820;2023-04-01T07:09:58;94550.09;;;7.45;100.00
8717;BME280;4395;48.554;8.820;2023-04-01T07:12:10;94549.56;;;7.48;100.00
8717;BME280;4395;48.554;8.820;2023-04-01T07:14:48;94551.69;;;7.51;100.00
8717;BME280;4395;48.554;8.820;2023-04-01T07:16:56;94544.75;;;7.65;100.00
8717;BME280;4395;48.554;8.820;2023-04-01T07:19:06;94549.84;;;7.61;100.00
8717;BME280;4395;48.554;8.820;2023-04-01T07:21:27;94549.06;;;7.76;100.00
8717;BME280;4395;48.554;8.820;2023-04-01T07:23:39;94547.97;;;7.77;100.00
8717;BME280;4395;48.554;8.820;2023-04-01T07:26:16;94546.66;;;7.80;100.00
8717;BME280;4395;48.554;8.820;2023-04-01T07:28:38;94562.69;;;7.69;100.00
8717;BME280;4395;48.554;8.820;2023-04-01T07:31:05;94568.31;;;7.78;100.00
8717;BME280;4395;48.554;8.820;2023-04-01T07:33:14;94584.34;;;7.73;100.00
8717;BME280;4395;48.554;8.820;2023-04-01T07:35:24;94556.53;;;7.79;100.00
8717;BME280;4395;48.554;8.820;2023-04-01T07:37:39;94560.81;;;7.75;100.00
8717;BME280;4395;48.554;8.820;2023-04-01T07:39:51;94561.88;;;7.79;100.00
8717;BME280;4395;48.554;8.820;2023-04-01T07:42:10;94566.47;;;7.89;100.00
8717;BME280;4395;48.554;8.820;2023-04-01T07:44:24;94492.09;;;7.35;100.00
8717;BME280;4395;48.554;8.820;2023-04-01T07:46:49;94586.00;;;7.84;100.00
8717;BME280;4395;48.554;8.820;2023-04-01T07:48:59;94567.81;;;7.86;100.00
8717;BME280;4395;48.554;8.820;2023-04-01T07:51:11;94568.06;;;7.90;100.00
8717;BME280;4395;48.554;8.820;2023-04-01T07:53:21;94571.50;;;7.75;100.00
8717;BME280;4395;48.554;8.820;2023-04-01T07:55:33;94573.13;;;7.71;100.00
8717;BME280;4395;48.554;8.820;2023-04-01T07:57:44;94578.75;;;7.80;100.00
8717;BME280;4395;48.554;8.820;2023-04-01T07:59:58;94585.97;;;7.79;100.00
8717;BME280;4395;48.554;8.820;2023-04-01T08:02:25;94579.53;;;7.60;100.00
8717;BME280;4395;48.554;8.820;2023-04-01T08:04:41;94559.41;;;7.22;100.00
8717;BME280;4395;48.554;8.820;2023-04-01T08:06:57;94576.84;;;7.55;100.00
8717;BME280;4395;48.554;8.820;2023-04-01T08:09:08;94572.03;;;7.67;100.00
8717;BME280;4395;48.554;8.820;2023-04-01T08:11:41;94579.00;;;7.68;100.00
8717;BME280;4395;48.554;8.820;2023-04-01T08:14:11;94589.94;;;7.61;100.00
8717;BME280;4395;48.554;8.820;2023-04-01T08:16:52;94593.34;;;7.26;100.00
8717;BME280;4395;48.554;8.820;2023-04-01T08:19:16;94589.66;;;7.53;100.00
8717;BME280;4395;48.554;8.820;2023-04-01T08:21:28;94591.81;;;7.61;100.00
8717;BME280;4395;48.554;8.820;2023-04-01T08:23:40;94564.25;;;7.40;100.00
8717;BME280;4395;48.554;8.820;2023-04-01T08:25:50;94602.50;;;7.61;100.00
8717;BME280;4395;48.554;8.820;2023-04-01T08:27:59;94541.69;;;6.95;100.00
8717;BME280;4395;48.554;8.820;2023-04-01T08:30:16;94598.19;;;7.39;100.00
8717;BME280;4395;48.554;8.820;2023-04-01T08:32:24;94530.81;;;7.22;100.00
8717;BME280;4395;48.554;8.820;2023-04-01T08:34:33;94593.44;;;7.72;100.00
8717;BME280;4395;48.554;8.820;2023-04-01T08:36:39;94590.47;;;7.58;100.00
8717;BME280;4395;48.554;8.820;2023-04-01T08:38:53;94512.81;;;6.82;100.00
8717;BME280;4395;48.554;8.820;2023-04-01T08:41:12;94599.06;;;7.70;100.00
8717;BME280;4395;48.554;8.820;2023-04-01T08:44:04;94613.19;;;7.51;100.00
8717;BME280;4395;48.554;8.820;2023-04-01T08:46:34;94595.31;;;7.77;100.00
8717;BME280;4395;48.554;8.820;2023-04-01T08:49:01;94601.50;;;7.87;100.00
8717;BME280;4395;48.554;8.820;2023-04-01T08:53:59;94604.66;;;7.59;100.00
8717;BME280;4395;48.554;8.820;2023-04-01T08:56:13;94587.81;;;7.58;100.00
8717;BME280;4395;48.554;8.820;2023-04-01T08:58:43;94607.88;;;7.71;100.00
8717;BME280;4395;48.554;8.820;2023-04-01T09:01:13;94613.56;;;8.05;100.00
8717;BME280;4395;48.554;8.820;2023-04-01T09:03:37;94604.19;;;8.02;100.00
8717;BME280;4395;48.554;8.820;2023-04-01T09:06:00;94538.38;;;7.81;100.00
8717;BME280;4395;48.554;8.820;2023-04-01T09:08:28;94611.69;;;8.41;100.00
8717;BME280;4395;48.554;8.820;2023-04-01T09:11:06;94624.78;;;8.02;100.00
8717;BME280;4395;48.554;8.820;2023-04-01T09:13:43;94613.28;;;7.96;100.00
8717;BME280;4395;48.554;8.820;2023-04-01T09:16:13;94611.16;;;8.03;100.00
8717;BME280;4395;48.554;8.820;2023-04-01T09:18:41;94614.09;;;8.27;100.00
8717;BME280;4395;48.554;8.820;2023-04-01T09:21:11;94612.75;;;8.30;100.00
8717;BME280;4395;48.554;8.820;2023-04-01T09:25:50;94625.59;;;8.23;100.00
8717;BME280;4395;48.554;8.820;2023-04-01T09:28:02;94610.06;;;8.20;100.00
8717;BME280;4395;48.554;8.820;2023-04-01T09:30:25;94592.41;;;8.09;100.00
8717;BME280;4395;48.554;8.820;2023-04-01T09:32:48;94598.56;;;8.40;100.00
8717;BME280;4395;48.554;8.820;2023-04-01T09:35:10;94586.53;;;8.42;100.00
8717;BME280;4395;48.554;8.820;2023-04-01T09:37:34;94642.72;;;8.57;100.00
8717;BME280;4395;48.554;8.820;2023-04-01T09:39:53;94645.41;;;8.57;100.00
8717;BME280;4395;48.554;8.820;2023-04-01T09:42:31;94637.63;;;8.61;100.00
8717;BME280;4395;48.554;8.820;2023-04-01T09:44:57;94648.06;;;8.27;100.00
8717;BME280;4395;48.554;8.820;2023-04-01T09:47:11;94664.41;;;8.20;100.00
8717;BME280;4395;48.554;8.820;2023-04-01T09:52:09;94627.72;;;8.31;100.00
8717;BME280;4395;48.554;8.820;2023-04-01T09:54:31;94640.59;;;8.24;100.00
8717;BME280;4395;48.554;8.820;2023-04-01T10:00:27;94643.81;;;8.46;100.00
8717;BME280;4395;48.554;8.820;2023-04-01T10:03:05;94640.59;;;8.39;100.00
8717;BME280;4395;48.554;8.820;2023-04-01T10:08:08;94653.19;;;8.38;100.00
8717;BME280;4395;48.554;8.820;2023-04-01T10:10:38;94637.94;;;8.44;100.00
8717;BME280;4395;48.554;8.820;2023-04-01T10:15:42;94647.00;;;8.58;100.00
8717;BME280;4395;48.554;8.820;2023-04-01T10:18:25;94649.41;;;8.65;100.00
8717;BME280;4395;48.554;8.820;2023-04-01T10:20:55;94652.38;;;8.53;100.00
8717;BME280;4395;48.554;8.820;2023-04-01T10:28:53;94646.72;;;8.70;100.00
8717;BME280;4395;48.554;8.820;2023-04-01T10:31:39;94665.22;;;8.61;100.00
8717;BME280;4395;48.554;8.820;2023-04-01T10:34:27;94643.25;;;8.64;100.00
8717;BME280;4395;48.554;8.820;2023-04-01T10:36:51;94647.53;;;8.15;100.00
8717;BME280;4395;48.554;8.820;2023-04-01T10:39:20;94643.00;;;8.66;100.00
8717;BME280;4395;48.554;8.820;2023-04-01T10:42:12;94643.00;;;8.51;100.00
8717;BME280;4395;48.554;8.820;2023-04-01T10:48:13;94650.63;;;9.18;100.00
8717;BME280;4395;48.554;8.820;2023-04-01T10:50:25;94507.88;;;7.92;100.00
8717;BME280;4395;48.554;8.820;2023-04-01T10:56:14;94518.28;;;8.40;100.00
8717;BME280;4395;48.554;8.820;2023-04-01T10:59:15;94664.31;;;9.12;100.00
8717;BME280;4395;48.554;8.820;2023-04-01T11:08:23;94672.06;;;9.18;100.00
8717;BME280;4395;48.554;8.820;2023-04-01T11:10:57;94654.63;;;9.26;100.00
8717;BME280;4395;48.554;8.820;2023-04-01T11:13:46;94663.53;;;9.01;100.00
8717;BME280;4395;48.554;8.820;2023-04-01T11:16:26;94600.19;;;8.46;100.00
8717;BME280;4395;48.554;8.820;2023-04-01T11:19:07;94664.53;;;9.25;100.00
8717;BME280;4395;48.554;8.820;2023-04-01T11:24:42;94667.25;;;9.20;100.00
8717;BME280;4395;48.554;8.820;2023-04-01T11:27:33;94655.69;;;9.30;100.00
8717;BME280;4395;48.554;8.820;2023-04-01T11:32:34;94674.94;;;9.96;100.00
8717;BME280;4395;48.554;8.820;2023-04-01T11:34:50;94667.41;;;9.98;100.00
8717;BME280;4395;48.554;8.820;2023-04-01T11:37:06;94677.56;;;9.52;100.00
8717;BME280;4395;48.554;8.820;2023-04-01T11:39:24;94631.38;;;9.01;100.00
8717;BME280;4395;48.554;8.820;2023-04-01T11:41:57;94680.34;;;9.27;100.00
8717;BME280;4395;48.554;8.820;2023-04-01T11:44:39;94675.13;;;8.66;100.00
8717;BME280;4395;48.554;8.820;2023-04-01T11:47:07;94685.47;;;9.18;100.00
8717;BME280;4395;48.554;8.820;2023-04-01T11:49:25;94681.91;;;9.38;100.00
8717;BME280;4395;48.554;8.820;2023-04-01T11:52:08;94677.97;;;9.20;100.00
8717;BME280;4395;48.554;8.820;2023-04-01T11:54:32;94667.16;;;9.41;100.00
8717;BME280;4395;48.554;8.820;2023-04-01T11:56:52;94688.97;;;9.83;100.00
8717;BME280;4395;48.554;8.820;2023-04-01T11:59:34;94682.38;;;9.60;100.00
8717;BME280;4395;48.554;8.820;2023-04-01T12:01:47;94688.94;;;9.29;100.00
8717;BME280;4395;48.554;8.820;2023-04-01T12:04:04;94707.94;;;9.38;100.00
8717;BME280;4395;48.554;8.820;2023-04-01T12:06:14;94683.69;;;8.83;100.00
8717;BME280;4395;48.554;8.820;2023-04-01T12:08:30;94667.25;;;9.20;100.00
8717;BME280;4395;48.554;8.820;2023-04-01T12:10:39;94684.81;;;9.52;100.00
8717;BME280;4395;48.554;8.820;2023-04-01T12:12:54;94687.97;;;9.64;100.00
8717;BME280;4395;48.554;8.820;2023-04-01T12:15:16;94705.53;;;9.36;100.00
8717;BME280;4395;48.554;8.820;2023-04-01T12:17:29;94697.59;;;8.95;100.00
8717;BME280;4395;48.554;8.820;2023-04-01T12:19:43;94696.75;;;9.15;100.00
8717;BME280;4395;48.554;8.820;2023-04-01T12:22:02;94699.69;;;9.19;100.00
8717;BME280;4395;48.554;8.820;2023-04-01T12:24:29;94719.03;;;9.80;100.00
8717;BME280;4395;48.554;8.820;2023-04-01T12:26:43;94710.63;;;9.97;100.00
8717;BME280;4395;48.554;8.820;2023-04-01T12:29:04;94710.38;;;9.93;100.00
8717;BME280;4395;48.554;8.820;2023-04-01T12:31:19;94706.78;;;10.08;100.00
8717;BME280;4395;48.554;8.820;2023-04-01T12:33:52;94664.16;;;8.67;100.00
8717;BME280;4395;48.554;8.820;2023-04-01T12:36:10;94690.34;;;9.01;100.00
8717;BME280;4395;48.554;8.820;2023-04-01T12:38:23;94703.16;;;9.19;100.00
8717;BME280;4395;48.554;8.820;2023-04-01T12:40:43;94694.44;;;9.58;100.00
8717;BME280;4395;48.554;8.820;2023-04-01T12:42:58;94713.44;;;9.66;100.00
8717;BME280;4395;48.554;8.820;2023-04-01T12:45:15;94709.06;;;9.16;100.00
8717;BME280;4395;48.554;8.820;2023-04-01T12:50:28;94724.84;;;9.97;100.00
8717;BME280;4395;48.554;8.820;2023-04-01T12:52:43;94641.56;;;9.68;100.00